Glenwood Plt, Maine
Current Conditions -  °F | °C
As of 11:04 PM on Tuesday 27 Jan 2015 (Local Time) from KHUL Reporting Station
Light Snow Light Snow  
Wind Chill: -11°   Ceiling: 2000
Heat Index:   Visibility: 1.2mi
Dew Point:   Wind: 20mph
Humidity: 80%   Direction: 10°N
Pressure: 29.69"   Gusts: 28mph
Location:  45.7877°N, 68.0764°W
Report Text: KHUL 280404Z AUTO 01017G24KT 1 1/4SM -SN OVC020 M13/M16 A2969 RMK AO2 P0000 T11331161
Loading
Personal Weather Stations






























Interactive Weather Map New forecast layout! Learn more

10-Day Weather Forecast

Advertisements
Track Severe Weather on mobile